createdAt,value
2022-10-28T00:01:19.312Z,6.20
2022-10-28T00:03:50.994Z,2.50
2022-10-28T00:06:21.081Z,4.23
2022-10-28T00:08:50.067Z,4.33
2022-10-28T00:11:20.560Z,3.10
2022-10-28T00:13:49.086Z,4.33
2022-10-28T00:16:20.231Z,2.03
2022-10-28T00:18:52.542Z,3.83
2022-10-28T00:21:23.705Z,2.40
2022-10-28T00:23:52.411Z,2.73
2022-10-28T00:26:22.586Z,3.30
2022-10-28T00:28:53.350Z,3.83
2022-10-28T00:31:23.520Z,2.90
2022-10-28T00:33:53.891Z,3.70
2022-10-28T00:36:24.174Z,4.77
2022-10-28T00:38:54.678Z,3.23
2022-10-28T00:41:24.958Z,3.33
2022-10-28T00:43:56.662Z,2.77
2022-10-28T00:46:30.969Z,2.63
2022-10-28T00:49:04.533Z,3.43
2022-10-28T00:51:35.073Z,2.23
2022-10-28T00:54:05.678Z,2.37
2022-10-28T00:56:35.741Z,7.33
2022-10-28T00:59:08.704Z,4.13
2022-10-28T01:01:37.214Z,2.70
2022-10-28T01:04:07.903Z,2.93
2022-10-28T01:06:36.465Z,4.60
2022-10-28T01:09:05.082Z,2.80
2022-10-28T01:11:44.544Z,2.20
2022-10-28T01:14:21.514Z,2.10
2022-10-28T01:17:02.092Z,4.97
2022-10-28T01:20:20.683Z,5.00
2022-10-28T01:22:57.227Z,4.00
2022-10-28T01:25:43.260Z,3.00
2022-10-28T01:28:29.229Z,2.47
2022-10-28T01:31:18.523Z,2.70
2022-10-28T01:33:53.344Z,2.87
2022-10-28T01:36:32.312Z,2.80
2022-10-28T01:39:14.311Z,3.10
2022-10-28T01:41:50.888Z,3.37
2022-10-28T01:44:29.827Z,2.80
2022-10-28T01:47:04.859Z,4.77
2022-10-28T01:49:42.446Z,3.27
2022-10-28T01:52:14.874Z,3.50
2022-10-28T01:54:47.013Z,5.33
2022-10-28T01:57:17.586Z,2.53
2022-10-28T01:59:48.369Z,3.10
2022-10-28T02:02:19.504Z,3.37
2022-10-28T02:04:47.837Z,3.83
2022-10-28T02:07:17.525Z,3.70
2022-10-28T02:10:01.925Z,3.10
2022-10-28T02:12:32.682Z,3.87
2022-10-28T02:15:24.350Z,3.63
2022-10-28T02:18:07.788Z,4.23
2022-10-28T02:20:41.745Z,2.43
2022-10-28T02:23:21.259Z,2.93
2022-10-28T02:25:57.757Z,3.63
2022-10-28T02:28:34.058Z,4.53
2022-10-28T02:31:08.517Z,4.07
2022-10-28T02:33:41.509Z,3.03
2022-10-28T02:36:15.004Z,2.97
2022-10-28T02:38:48.474Z,3.60
2022-10-28T02:41:21.678Z,2.77
2022-10-28T02:43:54.030Z,2.37
2022-10-28T02:46:24.375Z,2.27
2022-10-28T02:48:56.224Z,2.83
2022-10-28T02:51:30.009Z,3.50
2022-10-28T02:54:05.508Z,6.17
2022-10-28T02:56:39.529Z,3.60
2022-10-28T02:59:11.137Z,4.93
2022-10-28T03:01:39.593Z,3.40
2022-10-28T03:04:09.675Z,5.00
2022-10-28T03:06:38.021Z,3.30
2022-10-28T03:09:07.791Z,2.30
2022-10-28T03:11:36.053Z,2.60
2022-10-28T03:14:04.595Z,2.27
2022-10-28T03:16:32.958Z,2.70
2022-10-28T03:19:01.436Z,2.83
2022-10-28T03:21:31.153Z,3.33
2022-10-28T03:23:59.500Z,4.57
2022-10-28T03:26:27.833Z,3.00
2022-10-28T03:28:56.121Z,1.90
2022-10-28T03:31:24.490Z,2.37
2022-10-28T03:33:52.766Z,2.40
2022-10-28T03:36:21.062Z,3.17
2022-10-28T03:38:50.703Z,3.93
2022-10-28T03:41:19.054Z,2.50
2022-10-28T03:43:47.468Z,4.20
2022-10-28T03:46:15.794Z,3.50
2022-10-28T03:48:45.021Z,2.10
2022-10-28T03:51:13.356Z,2.47
2022-10-28T03:53:41.661Z,2.30
2022-10-28T03:56:12.670Z,2.37
2022-10-28T03:58:41.464Z,2.47
2022-10-28T04:01:10.255Z,4.77
2022-10-28T04:03:38.683Z,2.47
2022-10-28T04:06:07.312Z,3.57
2022-10-28T04:08:35.600Z,3.80
2022-10-28T04:11:04.549Z,3.97
2022-10-28T04:13:34.402Z,2.20
2022-10-28T04:16:03.079Z,4.57
2022-10-28T04:18:32.006Z,3.27
2022-10-28T04:21:00.327Z,2.13
2022-10-28T04:23:29.349Z,2.97
2022-10-28T04:25:57.793Z,2.13
2022-10-28T04:28:26.147Z,1.90
2022-10-28T04:30:55.837Z,3.33
2022-10-28T04:33:24.173Z,2.90
2022-10-28T04:35:52.724Z,4.30
2022-10-28T04:38:21.192Z,2.43
2022-10-28T04:40:49.990Z,2.70
2022-10-28T04:43:18.501Z,2.33
2022-10-28T04:45:47.451Z,4.53
2022-10-28T04:48:17.247Z,2.80
2022-10-28T04:50:46.912Z,2.20
2022-10-28T04:53:15.192Z,1.97
2022-10-28T04:55:43.482Z,4.23
2022-10-28T04:58:11.915Z,2.90
2022-10-28T05:00:40.192Z,2.67
2022-10-28T05:03:08.522Z,3.90
2022-10-28T05:05:38.488Z,2.43
2022-10-28T05:08:07.172Z,2.50
2022-10-28T05:10:35.771Z,7.13
2022-10-28T05:13:04.041Z,2.67
2022-10-28T05:15:32.367Z,2.43
2022-10-28T05:18:00.820Z,4.20
2022-10-28T05:20:29.178Z,3.07
2022-10-28T05:22:58.928Z,2.83
2022-10-28T05:25:27.233Z,5.50
2022-10-28T05:27:58.754Z,2.80
2022-10-28T05:30:27.789Z,3.20
2022-10-28T05:33:01.474Z,3.70
2022-10-28T05:35:30.355Z,2.57
2022-10-28T05:38:00.140Z,2.43
2022-10-28T05:40:28.496Z,1.93
2022-10-28T05:42:56.897Z,3.33
2022-10-28T05:45:25.304Z,3.50
2022-10-28T05:47:54.017Z,2.90
2022-10-28T05:50:23.340Z,2.40
2022-10-28T05:52:53.147Z,3.00
2022-10-28T05:55:25.023Z,2.73
2022-10-28T05:57:53.946Z,2.13
2022-10-28T06:00:25.019Z,2.07
2022-10-28T06:02:53.540Z,3.20
2022-10-28T06:05:22.076Z,4.10
2022-10-28T06:07:50.358Z,2.67
2022-10-28T06:10:18.812Z,2.50
2022-10-28T06:12:46.961Z,2.80
2022-10-28T06:15:15.381Z,3.00
2022-10-28T06:17:47.603Z,2.97
2022-10-28T06:20:16.670Z,3.03
2022-10-28T06:22:49.261Z,2.57
2022-10-28T06:25:18.000Z,2.40
2022-10-28T06:27:53.121Z,3.23
2022-10-28T06:30:21.706Z,3.03
2022-10-28T06:32:50.109Z,4.37
2022-10-28T06:35:18.667Z,4.60
2022-10-28T06:37:47.093Z,2.80
2022-10-28T06:40:15.570Z,2.60
2022-10-28T06:42:43.797Z,2.20
2022-10-28T06:45:13.655Z,2.70
2022-10-28T06:47:43.357Z,4.40
2022-10-28T06:50:11.709Z,3.43
2022-10-28T06:52:40.010Z,3.00
2022-10-28T06:55:08.873Z,4.20
2022-10-28T06:57:37.163Z,2.83
2022-10-28T07:00:06.174Z,2.80
2022-10-28T07:02:35.807Z,2.60
2022-10-28T07:05:04.183Z,2.50
2022-10-28T07:07:32.577Z,7.10
2022-10-28T07:10:00.955Z,2.87
2022-10-28T07:12:29.237Z,3.30
2022-10-28T07:14:57.587Z,4.37
2022-10-28T07:17:26.033Z,3.10
2022-10-28T07:19:55.727Z,2.53
2022-10-28T07:22:25.762Z,2.80
2022-10-28T07:24:54.279Z,3.43
2022-10-28T07:27:22.541Z,2.77
2022-10-28T07:29:50.813Z,4.33
2022-10-28T07:32:19.161Z,2.13
2022-10-28T07:34:47.526Z,2.60
2022-10-28T07:37:18.743Z,5.20
2022-10-28T07:39:47.168Z,2.77
2022-10-28T07:42:15.404Z,3.40
2022-10-28T07:44:43.712Z,8.27
2022-10-28T07:47:11.935Z,4.60
2022-10-28T07:49:40.134Z,4.40
2022-10-28T07:52:08.360Z,2.43
2022-10-28T07:54:38.059Z,4.77
2022-10-28T07:57:06.304Z,2.80
2022-10-28T07:59:34.562Z,6.83
2022-10-28T08:02:04.980Z,2.70
2022-10-28T08:04:36.111Z,3.33
2022-10-28T08:07:04.382Z,3.27
2022-10-28T08:09:32.841Z,4.07
2022-10-28T08:12:02.689Z,2.90
2022-10-28T08:14:31.071Z,3.57
2022-10-28T08:16:59.402Z,2.87
2022-10-28T08:19:28.086Z,3.93
2022-10-28T08:21:56.583Z,2.90
2022-10-28T08:24:24.946Z,5.47
2022-10-28T08:26:53.490Z,2.70
2022-10-28T08:29:26.407Z,3.70
2022-10-28T08:31:58.333Z,2.27
2022-10-28T08:34:29.914Z,2.97
2022-10-28T08:36:58.718Z,3.90
2022-10-28T08:39:27.608Z,3.20
2022-10-28T08:42:05.140Z,3.93
2022-10-28T08:44:50.666Z,4.67
2022-10-28T08:47:33.256Z,3.20
2022-10-28T08:50:06.647Z,2.50
2022-10-28T08:52:41.013Z,4.63
2022-10-28T08:55:16.701Z,3.00
2022-10-28T08:57:48.338Z,3.03
2022-10-28T09:00:24.769Z,2.53
2022-10-28T09:03:03.142Z,5.33
2022-10-28T09:05:31.798Z,2.83
2022-10-28T09:08:03.110Z,3.43
2022-10-28T09:10:50.731Z,3.30
2022-10-28T09:13:27.034Z,3.17
2022-10-28T09:16:03.692Z,2.80
2022-10-28T09:18:56.617Z,3.50
2022-10-28T09:21:33.151Z,4.60
2022-10-28T09:24:08.537Z,3.13
2022-10-28T09:26:51.411Z,4.37
2022-10-28T09:29:30.546Z,3.10
2022-10-28T09:32:06.482Z,3.23
2022-10-28T09:34:41.644Z,5.00
2022-10-28T09:37:19.815Z,3.00
2022-10-28T09:39:51.775Z,2.30
2022-10-28T09:42:25.271Z,2.73
2022-10-28T09:44:59.947Z,7.80
2022-10-28T09:47:36.612Z,3.23
2022-10-28T09:50:08.514Z,2.73
2022-10-28T09:52:44.567Z,4.00
2022-10-28T09:55:21.592Z,7.33
2022-10-28T09:57:51.004Z,4.63
2022-10-28T10:00:23.191Z,3.33
2022-10-28T10:02:59.246Z,3.23
2022-10-28T10:05:31.174Z,4.30
2022-10-28T10:08:03.401Z,4.20
2022-10-28T10:10:37.660Z,5.00
2022-10-28T10:13:07.466Z,6.50
2022-10-28T10:15:41.332Z,5.90
2022-10-28T10:18:19.001Z,5.83
2022-10-28T10:20:51.191Z,7.50
2022-10-28T10:23:28.216Z,6.13
2022-10-28T10:26:00.424Z,9.17
2022-10-28T10:28:31.060Z,5.47
2022-10-28T10:31:02.050Z,7.47
2022-10-28T10:33:38.084Z,11.03
2022-10-28T10:36:17.815Z,3.90
2022-10-28T10:38:50.453Z,6.13
2022-10-28T10:41:35.240Z,5.53
2022-10-28T10:44:25.525Z,7.70
2022-10-28T10:47:23.952Z,8.53
2022-10-28T10:49:55.812Z,6.23
2022-10-28T10:52:26.459Z,5.07
2022-10-28T10:55:03.005Z,6.90
2022-10-28T10:57:32.368Z,7.23
2022-10-28T11:00:01.691Z,3.53
2022-10-28T11:02:37.748Z,4.63
2022-10-28T11:05:11.269Z,7.67
2022-10-28T11:07:48.074Z,5.10
2022-10-28T11:10:23.854Z,2.53
2022-10-28T11:12:55.300Z,3.90
2022-10-28T11:15:29.297Z,4.00
2022-10-28T11:18:04.079Z,6.50
2022-10-28T11:24:25.468Z,8.40
2022-10-28T11:27:40.516Z,5.17
2022-10-28T11:30:28.711Z,4.20
2022-10-28T11:33:28.841Z,7.60
2022-10-28T11:36:13.093Z,4.40
2022-10-28T11:38:57.036Z,5.17
2022-10-28T11:41:37.866Z,4.87
2022-10-28T11:44:16.922Z,3.77
2022-10-28T11:47:00.864Z,5.13
2022-10-28T11:50:18.154Z,4.83
2022-10-28T11:53:07.458Z,6.27
2022-10-28T11:55:40.765Z,4.57
2022-10-28T11:58:21.161Z,2.93
2022-10-28T12:01:03.553Z,6.37
2022-10-28T12:04:04.972Z,4.83
2022-10-28T12:06:49.624Z,3.30
2022-10-28T12:09:28.175Z,4.53
2022-10-28T12:12:08.515Z,2.60
2022-10-28T12:14:47.511Z,5.83
2022-10-28T12:17:23.179Z,6.40
2022-10-28T12:19:58.468Z,7.47
2022-10-28T12:22:37.302Z,12.93
2022-10-28T12:25:14.549Z,7.50
2022-10-28T12:27:47.713Z,10.83
2022-10-28T12:30:22.165Z,5.87
2022-10-28T12:32:54.273Z,9.40
2022-10-28T12:35:26.700Z,8.07
2022-10-28T12:38:03.605Z,5.63
2022-10-28T12:40:40.834Z,8.10
2022-10-28T12:43:16.334Z,4.57
2022-10-28T12:45:48.472Z,7.40
2022-10-28T12:48:23.457Z,5.60
2022-10-28T12:50:55.471Z,6.97
2022-10-28T12:53:32.116Z,7.07
2022-10-28T12:56:05.800Z,4.87
2022-10-28T12:58:42.888Z,3.17
2022-10-28T13:01:15.095Z,7.40
2022-10-28T13:03:43.693Z,5.37
2022-10-28T13:06:42.679Z,7.30
2022-10-28T13:09:37.988Z,6.47
2022-10-28T13:12:47.209Z,6.60
2022-10-28T13:15:39.025Z,3.80
2022-10-28T13:18:29.613Z,6.70
2022-10-28T13:21:11.723Z,3.53
2022-10-28T13:23:46.076Z,6.00
2022-10-28T13:26:23.489Z,4.90
2022-10-28T13:28:57.329Z,7.27
2022-10-28T13:31:38.926Z,3.67
2022-10-28T13:34:08.283Z,3.87
2022-10-28T13:36:41.259Z,9.53
2022-10-28T13:39:26.357Z,7.67
2022-10-28T13:42:32.224Z,8.40
2022-10-28T13:45:03.848Z,5.87
2022-10-28T13:47:33.624Z,7.57
2022-10-28T13:50:37.303Z,12.23
2022-10-28T13:53:43.661Z,13.93
2022-10-28T13:56:46.066Z,12.03
2022-10-28T13:59:43.992Z,8.03
2022-10-28T14:02:40.793Z,9.60
2022-10-28T14:05:12.031Z,7.77
2022-10-28T14:07:51.909Z,8.00
2022-10-28T14:10:24.558Z,8.33
2022-10-28T14:12:56.634Z,13.40
2022-10-28T14:15:27.873Z,8.00
2022-10-28T14:18:15.980Z,8.90
2022-10-28T14:20:59.179Z,10.80
2022-10-28T14:24:08.386Z,8.40
2022-10-28T14:27:11.626Z,6.10
2022-10-28T14:29:45.227Z,6.30
2022-10-28T14:32:43.615Z,6.00
2022-10-28T14:35:28.455Z,9.40
2022-10-28T14:38:29.430Z,7.43
2022-10-28T14:41:07.763Z,8.43
2022-10-28T14:43:49.825Z,5.83
2022-10-28T14:46:39.953Z,8.30
2022-10-28T14:49:19.124Z,5.17
2022-10-28T14:51:51.046Z,4.40
2022-10-28T14:54:25.255Z,7.27
2022-10-28T14:56:57.401Z,6.63
2022-10-28T14:59:28.939Z,6.00
2022-10-28T15:02:03.241Z,6.13
2022-10-28T15:04:32.683Z,5.67
2022-10-28T15:07:03.702Z,5.90
2022-10-28T15:09:34.850Z,8.77
2022-10-28T15:12:07.569Z,9.47
2022-10-28T15:14:38.293Z,6.40
2022-10-28T15:17:20.696Z,16.13
2022-10-28T15:19:51.001Z,8.43
2022-10-28T15:22:22.651Z,9.27
2022-10-28T15:24:58.860Z,11.33
2022-10-28T15:27:30.239Z,9.10
2022-10-28T15:29:59.029Z,9.50
2022-10-28T15:32:32.993Z,6.17
2022-10-28T15:35:16.669Z,10.63
2022-10-28T15:37:46.912Z,8.80
2022-10-28T15:40:23.693Z,5.07
2022-10-28T15:42:58.447Z,8.23
2022-10-28T15:45:29.799Z,11.60
2022-10-28T15:47:59.830Z,7.67
2022-10-28T15:50:31.727Z,9.70
2022-10-28T15:53:23.626Z,12.57
2022-10-28T15:56:23.788Z,10.77
2022-10-28T15:59:14.802Z,8.43
2022-10-28T16:01:43.403Z,7.20
2022-10-28T16:04:43.410Z,8.10
2022-10-28T16:07:12.356Z,6.10
2022-10-28T16:09:48.252Z,9.90
2022-10-28T16:12:19.419Z,8.67
2022-10-28T16:14:50.730Z,7.40
2022-10-28T16:17:23.254Z,6.17
2022-10-28T16:19:55.933Z,11.53
2022-10-28T16:22:26.132Z,6.83
2022-10-28T16:24:56.605Z,7.60
2022-10-28T16:27:27.324Z,11.30
2022-10-28T16:29:55.937Z,4.70
2022-10-28T16:32:32.745Z,9.90
2022-10-28T16:35:04.032Z,7.20
2022-10-28T16:37:35.786Z,9.50
2022-10-28T16:40:24.857Z,5.70
2022-10-28T16:42:57.863Z,7.20
2022-10-28T16:45:26.547Z,7.77
2022-10-28T16:47:55.405Z,10.40
2022-10-28T16:50:24.066Z,5.43
2022-10-28T16:52:54.537Z,7.30
2022-10-28T16:55:24.440Z,5.57
2022-10-28T16:57:53.034Z,5.60
2022-10-28T17:00:21.925Z,6.63
2022-10-28T17:02:51.077Z,6.60
2022-10-28T17:05:21.348Z,5.60
2022-10-28T17:07:50.260Z,5.33
2022-10-28T17:10:19.381Z,5.23
2022-10-28T17:12:49.949Z,4.83
2022-10-28T17:15:18.776Z,5.40
2022-10-28T17:17:50.869Z,5.07
2022-10-28T17:20:19.992Z,7.70
2022-10-28T17:22:48.526Z,6.43
2022-10-28T17:25:17.127Z,6.10
2022-10-28T17:27:48.381Z,5.10
2022-10-28T17:30:19.124Z,4.03
2022-10-28T17:32:51.573Z,4.00
2022-10-28T17:35:20.978Z,4.70
2022-10-28T17:37:49.998Z,3.97
2022-10-28T17:40:18.697Z,4.17
2022-10-28T17:42:47.279Z,5.97
2022-10-28T17:45:19.398Z,3.77
2022-10-28T17:47:51.288Z,5.47
2022-10-28T17:50:19.725Z,4.10
2022-10-28T17:52:48.215Z,6.00
2022-10-28T17:55:16.981Z,7.63
2022-10-28T17:57:45.867Z,5.00
2022-10-28T18:00:15.817Z,3.90
2022-10-28T18:02:44.570Z,5.40
2022-10-28T18:05:14.742Z,3.80
2022-10-28T18:07:43.272Z,4.17
2022-10-28T18:10:11.850Z,6.93
2022-10-28T18:12:40.574Z,4.90
2022-10-28T18:15:11.067Z,4.93
2022-10-28T18:17:39.733Z,4.13
2022-10-28T18:20:09.688Z,5.70
2022-10-28T18:22:39.820Z,5.20
2022-10-28T18:25:09.280Z,3.93
2022-10-28T18:27:38.434Z,3.90
2022-10-28T18:30:07.984Z,4.03
2022-10-28T18:32:36.429Z,4.67
2022-10-28T18:35:05.488Z,5.80
2022-10-28T18:37:34.126Z,3.40
2022-10-28T18:40:03.997Z,4.10
2022-10-28T18:42:32.503Z,4.93
2022-10-28T18:45:01.090Z,4.70
2022-10-28T18:47:30.483Z,4.30
2022-10-28T18:49:59.008Z,5.30
2022-10-28T18:52:27.436Z,3.80
2022-10-28T18:54:55.945Z,4.27
2022-10-28T18:57:25.841Z,5.00
2022-10-28T19:02:47.777Z,2.80
2022-10-28T19:05:16.850Z,7.00
2022-10-28T19:07:45.650Z,5.00
2022-10-28T19:10:14.181Z,3.63
2022-10-28T19:12:46.050Z,3.07
2022-10-28T19:15:17.962Z,4.23
2022-10-28T19:17:46.475Z,5.03
2022-10-28T19:20:15.162Z,4.70
2022-10-28T19:22:43.702Z,3.27
2022-10-28T19:25:12.155Z,4.73
2022-10-28T19:27:40.757Z,4.60
2022-10-28T19:30:13.598Z,7.30
2022-10-28T19:32:42.358Z,3.37
2022-10-28T19:35:11.277Z,3.87
2022-10-28T19:37:39.711Z,2.70
2022-10-28T19:40:09.725Z,2.40
2022-10-28T19:42:39.027Z,2.67
2022-10-28T19:45:09.147Z,3.70
2022-10-28T19:47:39.050Z,4.50
2022-10-28T19:50:08.997Z,3.80
2022-10-28T19:52:37.466Z,4.13
2022-10-28T19:55:08.770Z,4.07
2022-10-28T19:57:39.524Z,3.90
2022-10-28T20:00:09.365Z,4.90
2022-10-28T20:02:42.138Z,3.40
2022-10-28T20:05:10.862Z,3.60
2022-10-28T20:07:39.275Z,3.00
2022-10-28T20:10:09.445Z,3.93
2022-10-28T20:12:37.812Z,6.57
2022-10-28T20:15:07.584Z,2.67
2022-10-28T20:17:35.910Z,6.10
2022-10-28T20:20:06.233Z,6.63
2022-10-28T20:22:38.560Z,3.20
2022-10-28T20:25:10.508Z,3.67
2022-10-28T20:27:38.869Z,3.93
2022-10-28T20:30:08.801Z,2.77
2022-10-28T20:32:37.199Z,2.93
2022-10-28T20:35:07.807Z,4.27
2022-10-28T20:37:36.204Z,3.73
2022-10-28T20:40:07.463Z,4.93
2022-10-28T20:42:36.068Z,4.70
2022-10-28T20:45:04.877Z,3.17
2022-10-28T20:47:36.457Z,3.60
2022-10-28T20:50:06.967Z,3.20
2022-10-28T20:52:35.268Z,4.17
2022-10-28T20:55:07.831Z,4.77
2022-10-28T20:57:36.452Z,3.40
2022-10-28T21:00:06.411Z,3.30
2022-10-28T21:02:34.883Z,4.93
2022-10-28T21:05:03.630Z,5.83
2022-10-28T21:07:33.556Z,3.20
2022-10-28T21:10:01.971Z,2.97
2022-10-28T21:12:30.357Z,3.30
2022-10-28T21:14:58.642Z,4.17
2022-10-28T21:17:26.926Z,3.37
2022-10-28T21:19:55.438Z,4.07
2022-10-28T21:22:23.846Z,3.53
2022-10-28T21:24:53.646Z,4.23
2022-10-28T21:27:22.143Z,2.80
2022-10-28T21:29:50.940Z,3.43
2022-10-28T21:32:20.059Z,6.07
2022-10-28T21:34:48.304Z,3.53
2022-10-28T21:37:16.661Z,3.83
2022-10-28T21:39:47.098Z,3.87
2022-10-28T21:42:16.897Z,4.43
2022-10-28T21:44:45.290Z,6.17
2022-10-28T21:47:13.774Z,4.97
2022-10-28T21:49:42.211Z,3.60
2022-10-28T21:52:11.601Z,4.30
2022-10-28T21:54:39.884Z,4.13
2022-10-28T21:57:08.190Z,3.63
2022-10-28T21:59:38.013Z,4.93
2022-10-28T22:02:06.575Z,4.80
2022-10-28T22:04:35.824Z,2.50
2022-10-28T22:07:04.252Z,4.20
2022-10-28T22:09:34.998Z,3.30
2022-10-28T22:12:09.575Z,3.93
2022-10-28T22:14:39.282Z,3.43
2022-10-28T22:17:07.785Z,2.97
2022-10-28T22:19:36.086Z,3.07
2022-10-28T22:22:04.431Z,3.20
2022-10-28T22:24:32.774Z,4.50
2022-10-28T22:27:01.284Z,2.63
2022-10-28T22:29:29.732Z,3.33
2022-10-28T22:31:59.443Z,3.03
2022-10-28T22:34:27.906Z,3.47
2022-10-28T22:36:56.218Z,3.03
2022-10-28T22:39:24.707Z,2.67
2022-10-28T22:41:53.088Z,4.80
2022-10-28T22:44:21.343Z,2.67
2022-10-28T22:46:49.733Z,3.97
2022-10-28T22:49:22.403Z,2.87
2022-10-28T22:51:50.868Z,5.40
2022-10-28T22:54:19.604Z,2.87
2022-10-28T22:56:49.348Z,2.47
2022-10-28T22:59:18.340Z,3.40
2022-10-28T23:01:46.900Z,2.30
2022-10-28T23:04:20.247Z,2.40
2022-10-28T23:06:48.570Z,3.00
2022-10-28T23:09:16.857Z,3.00
2022-10-28T23:11:45.260Z,2.70
2022-10-28T23:14:13.561Z,2.47
2022-10-28T23:16:41.852Z,3.93
2022-10-28T23:19:10.115Z,4.10
2022-10-28T23:21:40.035Z,4.00
2022-10-28T23:24:09.171Z,3.37
2022-10-28T23:26:37.464Z,2.87
2022-10-28T23:29:06.003Z,4.50
2022-10-28T23:31:34.322Z,3.70
2022-10-28T23:34:02.574Z,2.57
2022-10-28T23:36:31.084Z,2.90
2022-10-28T23:39:00.865Z,2.40
2022-10-28T23:41:29.225Z,4.33
2022-10-28T23:44:00.573Z,3.73
2022-10-28T23:46:32.314Z,2.43
2022-10-28T23:49:03.371Z,5.57
2022-10-28T23:51:31.744Z,2.60
2022-10-28T23:54:01.530Z,3.17
2022-10-28T23:56:30.068Z,4.23
2022-10-28T23:58:58.577Z,3.63
